Portada
METAR-TAF:

METAR-TAF

Aeropuertos :

Aeropuerto Internacional Gustavo Rojas Pinilla

San Andrés, Colombia

latitud: 12-35N, longitud: 081-43W, altitud: 1 m

Observación

El informe se hizo hace 21 minutos, a las 13:00 UTC
Viento 8 kt del noreste
Temperatura 27°C
Humedad 74%
Presión 1015 hPa
Visibilidad 10 km o más
Nubes dispersas a una altura de 1800 ft

METAR: SKSP 291300Z 04008KT 9999 SCT018 27/22 Q1015 RMK A2998

Hora: 08:21 (13:21 UTC)

Pronóstico

El informe se hizo hace 2 horas y 51 minutos, a las 10:30 UTC
Pronóstico válido del 29 a las 12 UTC al 30 a las 12 UTC
Viento 8 kt del este-noreste
Visibilidad 10 km o más
Escasas nubes a una altura de 1700 ft
Temporalmente
del 30 a las 01 UTC al 30 a las 04 UTC
Nubes dispersas a una altura de 1500 ft, Cumulus congestus.
lluvia

TAF: SKSP 291030Z 2912/3012 07008KT 9999 FEW017 TEMPO 3001/3004 RA SCT015TCU TX31/2918Z TN25/3011Z

Observaciones y pronósticos meteorológicos de más de 4000 aeropuertos (mensajes METAR y TAF).

Los puntos amarillos y rojos representan las estaciones disponibles.

Ponga el ratón en el punto deseado para ver el nombre de la estación.

Haga clic para ver las observaciones y los pronósticos meteorológicos.

Para cambiar el mapa : haga clic en los botones verdes con una cruz de color negro para hacer un zoom, en el botón verde con un guión para alejar o en las flechas verdes para mapas adyacentes.


METAR-TAF: